sensor_id;sensor_type;location;lat;lon;timestamp;temperature;humidity
58517;DHT22;44308;50.810;0.284;2023-04-01T00:02:33;11.40;99.90
58517;DHT22;44308;50.810;0.284;2023-04-01T00:04:59;11.40;99.90
58517;DHT22;44308;50.810;0.284;2023-04-01T00:07:24;11.30;99.90
58517;DHT22;44308;50.810;0.284;2023-04-01T00:09:51;11.40;99.90
58517;DHT22;44308;50.810;0.284;2023-04-01T00:12:22;11.40;99.90
58517;DHT22;44308;50.810;0.284;2023-04-01T00:14:51;11.40;99.90
58517;DHT22;44308;50.810;0.284;2023-04-01T00:17:16;11.40;99.90
58517;DHT22;44308;50.810;0.284;2023-04-01T00:19:42;11.40;99.90
58517;DHT22;44308;50.810;0.284;2023-04-01T00:22:10;11.40;99.90
58517;DHT22;44308;50.810;0.284;2023-04-01T00:24:42;11.40;99.90
58517;DHT22;44308;50.810;0.284;2023-04-01T00:27:08;11.40;99.90
58517;DHT22;44308;50.810;0.284;2023-04-01T00:29:37;11.40;99.90
58517;DHT22;44308;50.810;0.284;2023-04-01T00:32:06;11.40;99.90
58517;DHT22;44308;50.810;0.284;2023-04-01T00:34:31;11.40;99.90
58517;DHT22;44308;50.810;0.284;2023-04-01T00:36:58;11.30;99.90
58517;DHT22;44308;50.810;0.284;2023-04-01T00:39:24;11.50;99.90
58517;DHT22;44308;50.810;0.284;2023-04-01T00:41:49;11.40;99.90
58517;DHT22;44308;50.810;0.284;2023-04-01T00:44:24;11.40;99.90
58517;DHT22;44308;50.810;0.284;2023-04-01T00:46:50;11.40;99.90
58517;DHT22;44308;50.810;0.284;2023-04-01T00:49:18;11.50;99.90
58517;DHT22;44308;50.810;0.284;2023-04-01T00:51:49;11.50;99.90
58517;DHT22;44308;50.810;0.284;2023-04-01T00:54:17;11.40;99.90
58517;DHT22;44308;50.810;0.284;2023-04-01T00:56:48;11.50;99.90
58517;DHT22;44308;50.810;0.284;2023-04-01T00:59:19;11.50;99.90
58517;DHT22;44308;50.810;0.284;2023-04-01T01:01:48;11.50;99.90
58517;DHT22;44308;50.810;0.284;2023-04-01T01:04:40;11.40;99.90
58517;DHT22;44308;50.810;0.284;2023-04-01T01:13:14;11.40;99.90
58517;DHT22;44308;50.810;0.284;2023-04-01T01:24:23;11.30;99.90
58517;DHT22;44308;50.810;0.284;2023-04-01T01:27:06;11.40;99.90
58517;DHT22;44308;50.810;0.284;2023-04-01T01:34:55;11.40;99.90
58517;DHT22;44308;50.810;0.284;2023-04-01T01:37:25;11.40;99.90
58517;DHT22;44308;50.810;0.284;2023-04-01T01:39:56;11.40;99.90
58517;DHT22;44308;50.810;0.284;2023-04-01T01:42:30;11.30;99.90
58517;DHT22;44308;50.810;0.284;2023-04-01T01:44:59;11.20;99.90
58517;DHT22;44308;50.810;0.284;2023-04-01T01:47:28;11.30;99.90
58517;DHT22;44308;50.810;0.284;2023-04-01T01:49:55;11.20;99.90
58517;DHT22;44308;50.810;0.284;2023-04-01T01:52:22;11.20;99.90
58517;DHT22;44308;50.810;0.284;2023-04-01T01:54:56;11.20;99.90
58517;DHT22;44308;50.810;0.284;2023-04-01T01:57:34;11.20;99.90
58517;DHT22;44308;50.810;0.284;2023-04-01T02:00:09;11.20;99.90
58517;DHT22;44308;50.810;0.284;2023-04-01T02:02:47;11.30;99.90
58517;DHT22;44308;50.810;0.284;2023-04-01T02:05:25;11.30;99.90
58517;DHT22;44308;50.810;0.284;2023-04-01T02:08:02;11.30;99.90
58517;DHT22;44308;50.810;0.284;2023-04-01T02:10:31;11.20;99.90
58517;DHT22;44308;50.810;0.284;2023-04-01T02:13:05;11.20;99.90
58517;DHT22;44308;50.810;0.284;2023-04-01T02:15:41;11.30;99.90
58517;DHT22;44308;50.810;0.284;2023-04-01T02:18:15;11.30;99.90
58517;DHT22;44308;50.810;0.284;2023-04-01T02:20:44;11.30;99.90
58517;DHT22;44308;50.810;0.284;2023-04-01T02:23:13;11.20;99.90
58517;DHT22;44308;50.810;0.284;2023-04-01T02:25:39;11.30;99.90
58517;DHT22;44308;50.810;0.284;2023-04-01T02:28:10;11.20;99.90
58517;DHT22;44308;50.810;0.284;2023-04-01T02:30:41;11.20;99.90
58517;DHT22;44308;50.810;0.284;2023-04-01T02:33:12;11.20;99.90
58517;DHT22;44308;50.810;0.284;2023-04-01T02:35:38;11.20;99.90
58517;DHT22;44308;50.810;0.284;2023-04-01T02:38:04;11.20;99.90
58517;DHT22;44308;50.810;0.284;2023-04-01T02:40:45;11.20;99.90
58517;DHT22;44308;50.810;0.284;2023-04-01T02:43:13;11.10;99.90
58517;DHT22;44308;50.810;0.284;2023-04-01T02:45:38;11.10;99.90
58517;DHT22;44308;50.810;0.284;2023-04-01T02:48:07;11.10;99.90
58517;DHT22;44308;50.810;0.284;2023-04-01T02:50:33;11.00;99.90
58517;DHT22;44308;50.810;0.284;2023-04-01T02:53:02;11.00;99.90
58517;DHT22;44308;50.810;0.284;2023-04-01T02:55:32;11.10;99.90
58517;DHT22;44308;50.810;0.284;2023-04-01T02:58:04;11.10;99.90
58517;DHT22;44308;50.810;0.284;2023-04-01T03:00:30;11.10;99.90
58517;DHT22;44308;50.810;0.284;2023-04-01T03:02:56;11.10;99.90
58517;DHT22;44308;50.810;0.284;2023-04-01T03:05:22;11.20;99.90
58517;DHT22;44308;50.810;0.284;2023-04-01T03:07:50;11.10;99.90
58517;DHT22;44308;50.810;0.284;2023-04-01T03:10:17;11.20;99.90
58517;DHT22;44308;50.810;0.284;2023-04-01T03:12:46;11.20;99.90
58517;DHT22;44308;50.810;0.284;2023-04-01T03:15:15;11.10;99.90
58517;DHT22;44308;50.810;0.284;2023-04-01T03:17:44;11.20;99.90
58517;DHT22;44308;50.810;0.284;2023-04-01T03:20:10;11.20;99.90
58517;DHT22;44308;50.810;0.284;2023-04-01T03:22:40;11.10;99.90
58517;DHT22;44308;50.810;0.284;2023-04-01T03:25:07;11.20;99.90
58517;DHT22;44308;50.810;0.284;2023-04-01T03:27:34;11.20;99.90
58517;DHT22;44308;50.810;0.284;2023-04-01T03:30:04;11.20;99.90
58517;DHT22;44308;50.810;0.284;2023-04-01T03:32:30;11.10;99.90
58517;DHT22;44308;50.810;0.284;2023-04-01T03:34:56;11.10;99.90
58517;DHT22;44308;50.810;0.284;2023-04-01T03:37:25;11.20;99.90
58517;DHT22;44308;50.810;0.284;2023-04-01T03:39:59;11.10;99.90
58517;DHT22;44308;50.810;0.284;2023-04-01T03:42:29;11.10;99.90
58517;DHT22;44308;50.810;0.284;2023-04-01T03:45:08;11.20;99.90
58517;DHT22;44308;50.810;0.284;2023-04-01T03:47:38;11.10;99.90
58517;DHT22;44308;50.810;0.284;2023-04-01T03:50:04;11.00;99.90
58517;DHT22;44308;50.810;0.284;2023-04-01T03:52:57;11.00;99.90
58517;DHT22;44308;50.810;0.284;2023-04-01T03:55:22;11.10;99.90
58517;DHT22;44308;50.810;0.284;2023-04-01T03:57:48;11.00;99.90
58517;DHT22;44308;50.810;0.284;2023-04-01T04:00:14;11.10;99.90
58517;DHT22;44308;50.810;0.284;2023-04-01T04:02:41;11.00;99.90
58517;DHT22;44308;50.810;0.284;2023-04-01T04:05:06;11.10;99.90
58517;DHT22;44308;50.810;0.284;2023-04-01T04:07:34;11.10;99.90
58517;DHT22;44308;50.810;0.284;2023-04-01T04:10:00;11.00;99.90
58517;DHT22;44308;50.810;0.284;2023-04-01T04:12:26;11.10;99.90
58517;DHT22;44308;50.810;0.284;2023-04-01T04:14:52;11.00;99.90
58517;DHT22;44308;50.810;0.284;2023-04-01T04:17:18;11.20;99.90
58517;DHT22;44308;50.810;0.284;2023-04-01T04:19:50;11.10;99.90
58517;DHT22;44308;50.810;0.284;2023-04-01T04:22:21;11.00;99.90
58517;DHT22;44308;50.810;0.284;2023-04-01T04:24:46;11.10;99.90
58517;DHT22;44308;50.810;0.284;2023-04-01T04:27:12;11.00;99.90
58517;DHT22;44308;50.810;0.284;2023-04-01T04:29:38;11.00;99.90
58517;DHT22;44308;50.810;0.284;2023-04-01T04:32:05;11.00;99.90
58517;DHT22;44308;50.810;0.284;2023-04-01T04:34:37;11.00;99.90
58517;DHT22;44308;50.810;0.284;2023-04-01T04:37:03;11.10;99.90
58517;DHT22;44308;50.810;0.284;2023-04-01T04:39:29;11.10;99.90
58517;DHT22;44308;50.810;0.284;2023-04-01T04:41:58;11.10;99.90
58517;DHT22;44308;50.810;0.284;2023-04-01T04:44:27;11.10;99.90
58517;DHT22;44308;50.810;0.284;2023-04-01T04:46:56;11.10;99.90
58517;DHT22;44308;50.810;0.284;2023-04-01T04:49:22;11.00;99.90
58517;DHT22;44308;50.810;0.284;2023-04-01T04:51:48;11.00;99.90
58517;DHT22;44308;50.810;0.284;2023-04-01T04:54:16;11.00;99.90
58517;DHT22;44308;50.810;0.284;2023-04-01T04:56:45;11.00;99.90
58517;DHT22;44308;50.810;0.284;2023-04-01T04:59:13;11.00;99.90
58517;DHT22;44308;50.810;0.284;2023-04-01T05:05:08;11.00;99.90
58517;DHT22;44308;50.810;0.284;2023-04-01T05:07:37;11.00;99.90
58517;DHT22;44308;50.810;0.284;2023-04-01T05:10:03;11.00;99.90
58517;DHT22;44308;50.810;0.284;2023-04-01T05:16:14;11.00;99.90
58517;DHT22;44308;50.810;0.284;2023-04-01T05:18:41;11.00;99.90
58517;DHT22;44308;50.810;0.284;2023-04-01T05:21:14;11.10;99.90
58517;DHT22;44308;50.810;0.284;2023-04-01T05:23:41;11.00;99.90
58517;DHT22;44308;50.810;0.284;2023-04-01T05:26:10;11.00;99.90
58517;DHT22;44308;50.810;0.284;2023-04-01T05:28:39;10.90;99.90
58517;DHT22;44308;50.810;0.284;2023-04-01T05:31:08;10.90;99.90
58517;DHT22;44308;50.810;0.284;2023-04-01T05:33:35;10.90;99.90
58517;DHT22;44308;50.810;0.284;2023-04-01T05:36:10;11.00;99.90
58517;DHT22;44308;50.810;0.284;2023-04-01T05:38:38;11.00;99.90
58517;DHT22;44308;50.810;0.284;2023-04-01T05:41:08;11.00;99.90
58517;DHT22;44308;50.810;0.284;2023-04-01T05:43:36;11.00;99.90
58517;DHT22;44308;50.810;0.284;2023-04-01T05:46:02;11.00;99.90
58517;DHT22;44308;50.810;0.284;2023-04-01T05:48:30;11.00;99.90
58517;DHT22;44308;50.810;0.284;2023-04-01T05:50:56;10.90;99.90
58517;DHT22;44308;50.810;0.284;2023-04-01T05:53:23;10.90;99.90
58517;DHT22;44308;50.810;0.284;2023-04-01T05:55:48;10.80;99.90
58517;DHT22;44308;50.810;0.284;2023-04-01T05:58:14;10.80;99.90
58517;DHT22;44308;50.810;0.284;2023-04-01T06:00:40;10.80;99.90
58517;DHT22;44308;50.810;0.284;2023-04-01T06:03:06;10.80;99.90
58517;DHT22;44308;50.810;0.284;2023-04-01T06:05:50;10.80;99.90
58517;DHT22;44308;50.810;0.284;2023-04-01T06:08:24;10.80;99.90
58517;DHT22;44308;50.810;0.284;2023-04-01T06:20:02;10.80;99.90
58517;DHT22;44308;50.810;0.284;2023-04-01T06:46:14;10.70;99.90
58517;DHT22;44308;50.810;0.284;2023-04-01T06:55:30;10.80;99.90
58517;DHT22;44308;50.810;0.284;2023-04-01T06:58:00;10.80;99.90
58517;DHT22;44308;50.810;0.284;2023-04-01T07:00:36;10.80;99.90
58517;DHT22;44308;50.810;0.284;2023-04-01T07:06:01;10.90;99.90
58517;DHT22;44308;50.810;0.284;2023-04-01T07:08:36;10.90;99.90
58517;DHT22;44308;50.810;0.284;2023-04-01T07:11:09;11.00;99.90
58517;DHT22;44308;50.810;0.284;2023-04-01T07:13:55;10.90;99.90
58517;DHT22;44308;50.810;0.284;2023-04-01T07:16:39;10.90;99.90
58517;DHT22;44308;50.810;0.284;2023-04-01T07:19:27;11.10;99.90
58517;DHT22;44308;50.810;0.284;2023-04-01T07:22:05;11.00;99.90
58517;DHT22;44308;50.810;0.284;2023-04-01T07:24:41;11.00;99.90
58517;DHT22;44308;50.810;0.284;2023-04-01T07:27:13;11.00;99.90
58517;DHT22;44308;50.810;0.284;2023-04-01T07:29:41;11.00;99.90
58517;DHT22;44308;50.810;0.284;2023-04-01T07:35:35;11.20;99.90
58517;DHT22;44308;50.810;0.284;2023-04-01T07:38:11;11.40;99.90
58517;DHT22;44308;50.810;0.284;2023-04-01T07:41:16;11.30;99.90
58517;DHT22;44308;50.810;0.284;2023-04-01T07:44:07;11.40;99.90
58517;DHT22;44308;50.810;0.284;2023-04-01T07:49:58;11.30;99.90
58517;DHT22;44308;50.810;0.284;2023-04-01T08:01:21;11.70;99.90
58517;DHT22;44308;50.810;0.284;2023-04-01T08:06:45;11.80;99.90
58517;DHT22;44308;50.810;0.284;2023-04-01T08:20:26;12.30;99.90
58517;DHT22;44308;50.810;0.284;2023-04-01T08:23:00;12.30;99.90
58517;DHT22;44308;50.810;0.284;2023-04-01T08:25:29;12.30;99.90
58517;DHT22;44308;50.810;0.284;2023-04-01T08:28:19;12.40;99.90
58517;DHT22;44308;50.810;0.284;2023-04-01T08:33:26;12.00;99.90
58517;DHT22;44308;50.810;0.284;2023-04-01T08:36:20;11.90;99.90
58517;DHT22;44308;50.810;0.284;2023-04-01T09:00:53;11.70;99.90
58517;DHT22;44308;50.810;0.284;2023-04-01T09:03:25;11.90;99.90
58517;DHT22;44308;50.810;0.284;2023-04-01T09:18:13;12.20;99.90
58517;DHT22;44308;50.810;0.284;2023-04-01T09:23:25;12.10;99.90
58517;DHT22;44308;50.810;0.284;2023-04-01T09:28:54;12.00;99.90
58517;DHT22;44308;50.810;0.284;2023-04-01T09:34:25;11.60;99.90
58517;DHT22;44308;50.810;0.284;2023-04-01T09:37:20;11.70;99.90
58517;DHT22;44308;50.810;0.284;2023-04-01T09:40:14;11.90;99.90
58517;DHT22;44308;50.810;0.284;2023-04-01T09:43:25;12.00;99.90
58517;DHT22;44308;50.810;0.284;2023-04-01T09:48:59;12.30;99.90
58517;DHT22;44308;50.810;0.284;2023-04-01T10:11:22;12.00;99.90
58517;DHT22;44308;50.810;0.284;2023-04-01T10:22:38;12.20;99.90
58517;DHT22;44308;50.810;0.284;2023-04-01T10:54:20;11.80;99.90
58517;DHT22;44308;50.810;0.284;2023-04-01T10:56:55;11.90;99.90
58517;DHT22;44308;50.810;0.284;2023-04-01T11:17:10;12.70;99.90
58517;DHT22;44308;50.810;0.284;2023-04-01T11:19:49;12.70;99.90
58517;DHT22;44308;50.810;0.284;2023-04-01T11:25:20;12.90;99.90
58517;DHT22;44308;50.810;0.284;2023-04-01T11:28:15;13.10;99.90
58517;DHT22;44308;50.810;0.284;2023-04-01T11:33:47;13.30;99.90
58517;DHT22;44308;50.810;0.284;2023-04-01T11:36:30;13.30;99.90
58517;DHT22;44308;50.810;0.284;2023-04-01T11:42:14;12.90;99.90
58517;DHT22;44308;50.810;0.284;2023-04-01T11:45:00;12.70;99.90
58517;DHT22;44308;50.810;0.284;2023-04-01T11:51:05;12.60;99.90
58517;DHT22;44308;50.810;0.284;2023-04-01T12:00:05;13.50;99.90
58517;DHT22;44308;50.810;0.284;2023-04-01T12:05:38;13.80;99.90
58517;DHT22;44308;50.810;0.284;2023-04-01T12:11:00;13.90;99.90
58517;DHT22;44308;50.810;0.284;2023-04-01T12:28:21;13.70;99.90
58517;DHT22;44308;50.810;0.284;2023-04-01T12:30:56;13.80;99.90
58517;DHT22;44308;50.810;0.284;2023-04-01T12:36:34;14.00;99.90
58517;DHT22;44308;50.810;0.284;2023-04-01T12:42:22;14.10;99.90
58517;DHT22;44308;50.810;0.284;2023-04-01T12:55:45;15.20;99.90
58517;DHT22;44308;50.810;0.284;2023-04-01T13:01:10;16.20;99.90
58517;DHT22;44308;50.810;0.284;2023-04-01T13:15:23;15.40;99.90
58517;DHT22;44308;50.810;0.284;2023-04-01T13:20:53;15.00;99.90
58517;DHT22;44308;50.810;0.284;2023-04-01T13:31:35;15.00;99.90
58517;DHT22;44308;50.810;0.284;2023-04-01T13:34:32;15.00;99.90
58517;DHT22;44308;50.810;0.284;2023-04-01T13:45:00;14.50;99.90
58517;DHT22;44308;50.810;0.284;2023-04-01T13:59:02;14.60;99.90
58517;DHT22;44308;50.810;0.284;2023-04-01T14:01:52;15.20;99.90
58517;DHT22;44308;50.810;0.284;2023-04-01T14:28:51;14.40;99.90
58517;DHT22;44308;50.810;0.284;2023-04-01T14:36:43;15.50;99.90
58517;DHT22;44308;50.810;0.284;2023-04-01T14:44:53;15.10;99.90
58517;DHT22;44308;50.810;0.284;2023-04-01T14:50:21;14.60;99.90
58517;DHT22;44308;50.810;0.284;2023-04-01T14:58:19;15.30;99.90
58517;DHT22;44308;50.810;0.284;2023-04-01T15:11:42;16.20;99.90
58517;DHT22;44308;50.810;0.284;2023-04-01T15:20:39;15.10;99.90
58517;DHT22;44308;50.810;0.284;2023-04-01T15:41:02;13.90;99.90
58517;DHT22;44308;50.810;0.284;2023-04-01T15:43:44;13.70;99.90
58517;DHT22;44308;50.810;0.284;2023-04-01T15:46:48;13.50;99.90
58517;DHT22;44308;50.810;0.284;2023-04-01T15:49:37;13.40;99.90
58517;DHT22;44308;50.810;0.284;2023-04-01T15:52:41;13.30;99.90
58517;DHT22;44308;50.810;0.284;2023-04-01T15:55:26;13.70;99.90
58517;DHT22;44308;50.810;0.284;2023-04-01T16:01:19;14.50;99.90
58517;DHT22;44308;50.810;0.284;2023-04-01T16:09:32;14.10;99.90
58517;DHT22;44308;50.810;0.284;2023-04-01T16:12:24;13.80;99.90
58517;DHT22;44308;50.810;0.284;2023-04-01T16:20:25;13.50;99.90
58517;DHT22;44308;50.810;0.284;2023-04-01T16:27:27;13.30;99.90
58517;DHT22;44308;50.810;0.284;2023-04-01T16:33:00;13.40;99.90
58517;DHT22;44308;50.810;0.284;2023-04-01T16:35:47;13.20;99.90
58517;DHT22;44308;50.810;0.284;2023-04-01T16:46:59;12.90;99.90
58517;DHT22;44308;50.810;0.284;2023-04-01T16:49:37;12.80;99.90
58517;DHT22;44308;50.810;0.284;2023-04-01T16:57:27;12.80;99.90
58517;DHT22;44308;50.810;0.284;2023-04-01T17:00:16;12.70;99.90
58517;DHT22;44308;50.810;0.284;2023-04-01T17:02:51;12.70;99.90
58517;DHT22;44308;50.810;0.284;2023-04-01T17:05:49;12.50;99.90
58517;DHT22;44308;50.810;0.284;2023-04-01T17:16:50;12.30;99.90
58517;DHT22;44308;50.810;0.284;2023-04-01T17:27:31;11.90;99.90
58517;DHT22;44308;50.810;0.284;2023-04-01T17:30:33;11.80;99.90
58517;DHT22;44308;50.810;0.284;2023-04-01T17:33:37;11.90;99.90
58517;DHT22;44308;50.810;0.284;2023-04-01T17:41:19;11.70;99.90
58517;DHT22;44308;50.810;0.284;2023-04-01T17:44:08;11.60;99.90
58517;DHT22;44308;50.810;0.284;2023-04-01T17:54:31;11.40;99.90
58517;DHT22;44308;50.810;0.284;2023-04-01T18:00:01;11.30;99.90
58517;DHT22;44308;50.810;0.284;2023-04-01T18:08:06;11.10;99.90
58517;DHT22;44308;50.810;0.284;2023-04-01T18:10:57;11.00;99.90
58517;DHT22;44308;50.810;0.284;2023-04-01T18:19:26;11.00;99.90
58517;DHT22;44308;50.810;0.284;2023-04-01T18:24:56;10.90;99.90
58517;DHT22;44308;50.810;0.284;2023-04-01T18:27:51;10.80;99.90
58517;DHT22;44308;50.810;0.284;2023-04-01T18:30:29;10.80;99.90
58517;DHT22;44308;50.810;0.284;2023-04-01T18:52:44;10.60;99.90
58517;DHT22;44308;50.810;0.284;2023-04-01T18:55:29;10.60;99.90
58517;DHT22;44308;50.810;0.284;2023-04-01T19:03:25;10.50;99.90
58517;DHT22;44308;50.810;0.284;2023-04-01T19:05:53;10.50;99.90
58517;DHT22;44308;50.810;0.284;2023-04-01T19:08:40;10.50;99.90
58517;DHT22;44308;50.810;0.284;2023-04-01T19:11:28;10.40;99.90
58517;DHT22;44308;50.810;0.284;2023-04-01T19:14:15;10.40;99.90
58517;DHT22;44308;50.810;0.284;2023-04-01T19:17:02;10.30;99.90
58517;DHT22;44308;50.810;0.284;2023-04-01T19:19:56;10.30;99.90
58517;DHT22;44308;50.810;0.284;2023-04-01T19:25:25;10.30;99.90
58517;DHT22;44308;50.810;0.284;2023-04-01T19:28:07;10.30;99.90
58517;DHT22;44308;50.810;0.284;2023-04-01T19:30:49;10.30;99.90
58517;DHT22;44308;50.810;0.284;2023-04-01T19:36:24;10.20;99.90
58517;DHT22;44308;50.810;0.284;2023-04-01T19:46:51;10.20;99.90
58517;DHT22;44308;50.810;0.284;2023-04-01T19:49:25;10.20;99.90
58517;DHT22;44308;50.810;0.284;2023-04-01T19:52:09;10.30;99.90
58517;DHT22;44308;50.810;0.284;2023-04-01T20:08:50;10.20;99.90
58517;DHT22;44308;50.810;0.284;2023-04-01T20:16:52;10.20;99.90
58517;DHT22;44308;50.810;0.284;2023-04-01T20:22:15;10.20;99.90
58517;DHT22;44308;50.810;0.284;2023-04-01T20:24:46;10.20;99.90
58517;DHT22;44308;50.810;0.284;2023-04-01T20:27:25;10.20;99.90
58517;DHT22;44308;50.810;0.284;2023-04-01T20:41:24;10.20;99.90
58517;DHT22;44308;50.810;0.284;2023-04-01T20:44:12;10.20;99.90
58517;DHT22;44308;50.810;0.284;2023-04-01T20:49:30;10.00;99.90
58517;DHT22;44308;50.810;0.284;2023-04-01T21:05:37;9.70;99.90
58517;DHT22;44308;50.810;0.284;2023-04-01T21:11:40;9.60;99.90
58517;DHT22;44308;50.810;0.284;2023-04-01T21:19:49;9.60;99.90
58517;DHT22;44308;50.810;0.284;2023-04-01T21:28:07;9.50;99.90
58517;DHT22;44308;50.810;0.284;2023-04-01T21:31:00;9.50;99.90
58517;DHT22;44308;50.810;0.284;2023-04-01T21:51:16;9.40;99.90
58517;DHT22;44308;50.810;0.284;2023-04-01T21:56:49;9.50;99.90
58517;DHT22;44308;50.810;0.284;2023-04-01T22:04:56;9.40;99.90
58517;DHT22;44308;50.810;0.284;2023-04-01T22:07:42;9.40;99.90
58517;DHT22;44308;50.810;0.284;2023-04-01T22:18:27;9.30;99.90
58517;DHT22;44308;50.810;0.284;2023-04-01T22:20:59;9.30;99.90
58517;DHT22;44308;50.810;0.284;2023-04-01T22:29:10;9.20;99.90
58517;DHT22;44308;50.810;0.284;2023-04-01T22:31:44;9.20;99.90
58517;DHT22;44308;50.810;0.284;2023-04-01T22:34:36;9.10;99.90
58517;DHT22;44308;50.810;0.284;2023-04-01T22:42:56;9.10;99.90
58517;DHT22;44308;50.810;0.284;2023-04-01T22:48:20;9.00;99.90
58517;DHT22;44308;50.810;0.284;2023-04-01T22:56:07;9.00;99.90
58517;DHT22;44308;50.810;0.284;2023-04-01T22:58:42;9.00;99.90
58517;DHT22;44308;50.810;0.284;2023-04-01T23:01:14;9.00;99.90
58517;DHT22;44308;50.810;0.284;2023-04-01T23:03:44;9.00;99.90
58517;DHT22;44308;50.810;0.284;2023-04-01T23:06:23;9.00;99.90
58517;DHT22;44308;50.810;0.284;2023-04-01T23:11:44;9.00;99.90
58517;DHT22;44308;50.810;0.284;2023-04-01T23:27:36;9.00;99.90
58517;DHT22;44308;50.810;0.284;2023-04-01T23:30:11;9.00;99.90
58517;DHT22;44308;50.810;0.284;2023-04-01T23:32:50;9.00;99.90
58517;DHT22;44308;50.810;0.284;2023-04-01T23:35:16;9.00;99.90
58517;DHT22;44308;50.810;0.284;2023-04-01T23:37:42;9.00;99.90
58517;DHT22;44308;50.810;0.284;2023-04-01T23:40:12;9.00;99.90
58517;DHT22;44308;50.810;0.284;2023-04-01T23:42:40;8.90;99.90
58517;DHT22;44308;50.810;0.284;2023-04-01T23:45:16;8.90;99.90
58517;DHT22;44308;50.810;0.284;2023-04-01T23:47:46;8.90;99.90
58517;DHT22;44308;50.810;0.284;2023-04-01T23:50:22;8.90;99.90
58517;DHT22;44308;50.810;0.284;2023-04-01T23:53:02;8.90;99.90
58517;DHT22;44308;50.810;0.284;2023-04-01T23:55:32;8.90;99.90
58517;DHT22;44308;50.810;0.284;2023-04-01T23:58:16;8.90;99.90
